Time;durP1;ratioP1;P1;durP2;ratioP2;P2;SDS_P1;SDS_P2;PMS_P1;PMS_P2;Temp;Humidity;BMP_temperature;BMP_pressure;BME280_temperature;BME280_humidity;BME280_pressure;Samples;Min_cycle;Max_cycle;Signal;HPM_P1;HPM_P2
2021/10/31 00:01:53;;;;;;;115.07;55.57;;;;;;;1.56;74.29;100988.95;1472874;88;21326;-87
2021/10/31 00:04:21;;;;;;;107.03;57.20;;;;;;;1.45;74.36;101000.38;1461711;88;22960;-86
2021/10/31 00:06:49;;;;;;;113.45;56.60;;;;;;;1.37;74.07;100997.29;1450788;89;21421;-86
2021/10/31 00:09:17;;;;;;;110.75;56.83;;;;;;;1.33;74.74;100996.14;1467558;89;21420;-86
2021/10/31 00:11:44;;;;;;;116.00;59.13;;;;;;;1.31;74.58;100993.21;1445979;89;21539;-87
2021/10/31 00:14:12;;;;;;;111.77;54.40;;;;;;;1.27;74.52;100993.83;1438874;90;21414;-86
2021/10/31 00:16:39;;;;;;;117.03;57.53;;;;;;;1.24;76.14;100995.28;1441521;90;21466;-87
2021/10/31 00:19:06;;;;;;;109.07;57.17;;;;;;;1.22;76.27;100990.59;1440402;90;21335;-86
2021/10/31 00:21:33;;;;;;;100.82;51.20;;;;;;;1.19;75.84;100989.44;1456029;89;21317;-86
2021/10/31 00:24:01;;;;;;;107.55;55.50;;;;;;;1.14;75.95;100984.90;1447851;89;21317;-86
2021/10/31 00:26:28;;;;;;;105.92;55.75;;;;;;;1.13;75.89;100988.44;1433883;91;21501;-86
2021/10/31 00:28:55;;;;;;;99.52;54.25;;;;;;;1.15;75.57;100989.18;1441374;91;23395;-87
2021/10/31 00:31:22;;;;;;;103.22;54.20;;;;;;;1.17;74.89;100991.27;1437565;90;21346;-87
2021/10/31 00:33:49;;;;;;;97.53;52.17;;;;;;;1.16;75.53;100992.20;1442186;90;21339;-87
2021/10/31 00:36:17;;;;;;;101.02;54.75;;;;;;;1.05;75.66;100993.16;1441842;90;21392;-86
2021/10/31 00:38:44;;;;;;;117.05;56.10;;;;;;;1.01;74.96;101003.36;1438971;91;22390;-86
2021/10/31 00:41:11;;;;;;;122.87;62.38;;;;;;;1.02;74.59;101005.05;1441559;90;21487;-87
2021/10/31 00:43:39;;;;;;;106.63;57.85;;;;;;;1.08;74.66;101007.36;1441444;90;21406;-86
2021/10/31 00:46:06;;;;;;;122.47;62.33;;;;;;;1.12;74.61;101007.15;1442639;90;21354;-86
2021/10/31 00:48:33;;;;;;;122.78;62.23;;;;;;;1.21;74.21;101014.99;1441759;90;21413;-86
2021/10/31 00:51:00;;;;;;;110.25;60.88;;;;;;;1.25;74.15;101011.77;1436921;91;21487;-85
2021/10/31 00:53:29;;;;;;;134.27;65.00;;;;;;;1.24;76.05;101012.23;1431510;91;21404;-86
2021/10/31 00:56:00;;;;;;;128.00;65.05;;;;;;;1.21;75.60;101012.38;1432391;90;21532;-85
2021/10/31 00:58:27;;;;;;;137.03;65.10;;;;;;;1.24;75.40;101012.23;1431114;89;21482;-85
2021/10/31 01:00:54;;;;;;;117.70;63.28;;;;;;;1.26;75.47;101002.55;1465478;89;21503;-85
2021/10/31 01:03:21;;;;;;;120.33;64.30;;;;;;;1.29;75.33;101005.47;1435530;91;21480;-86
2021/10/31 01:05:52;;;;;;;115.17;57.85;;;;;;;1.27;76.55;101000.34;1437863;91;21391;-84
2021/10/31 01:08:43;;;;;;;109.32;60.60;;;;;;;1.22;76.87;101003.63;1454307;90;21362;-84
2021/10/31 01:11:30;;;;;;;115.37;60.00;;;;;;;1.16;76.32;101005.70;1427874;91;21605;-84
2021/10/31 01:14:25;;;;;;;122.28;61.10;;;;;;;1.07;76.43;101003.07;1426309;92;21480;-85
2021/10/31 01:17:15;;;;;;;111.22;60.25;;;;;;;1.01;75.79;101008.58;1440228;91;21406;-84
2021/10/31 01:20:06;;;;;;;113.83;61.05;;;;;;;0.98;75.76;100995.66;1450111;89;21892;-85
2021/10/31 01:22:55;;;;;;;131.12;66.47;;;;;;;0.98;75.56;100994.36;1433100;91;21428;-84
2021/10/31 01:25:49;;;;;;;136.13;57.50;;;;;;;0.99;75.14;101004.72;1420342;91;21472;-84
2021/10/31 01:28:27;;;;;;;127.62;66.85;;;;;;;1.01;75.75;100996.84;1369993;93;21826;-83
2021/10/31 01:31:15;;;;;;;124.10;67.70;;;;;;;1.04;76.31;100994.09;1401141;92;22290;-84
2021/10/31 01:34:11;;;;;;;123.20;64.15;;;;;;;1.04;77.12;100999.31;1399999;93;21431;-83
2021/10/31 01:37:01;;;;;;;125.60;65.55;;;;;;;1.07;76.33;100992.17;1385386;93;21535;-82
2021/10/31 01:39:55;;;;;;;118.08;62.13;;;;;;;1.09;76.33;100988.17;1396618;93;21438;-83
2021/10/31 01:42:59;;;;;;;136.45;68.65;;;;;;;1.13;75.49;100991.04;1384111;94;21380;-83
2021/10/31 01:46:09;;;;;;;139.15;70.42;;;;;;;1.19;75.83;100993.35;1383645;94;21364;-83
2021/10/31 01:48:51;;;;;;;125.47;64.45;;;;;;;1.19;76.12;100994.66;1384532;94;21506;-83
2021/10/31 01:51:26;;;;;;;121.70;61.83;;;;;;;1.16;77.04;100988.28;1398588;93;21542;-83
2021/10/31 01:54:11;;;;;;;117.95;62.30;;;;;;;1.13;76.63;100991.04;1402452;93;22480;-83
2021/10/31 01:56:41;;;;;;;124.20;62.62;;;;;;;1.09;76.30;100992.95;1390897;93;21446;-83
2021/10/31 01:59:13;;;;;;;123.82;65.45;;;;;;;1.09;76.19;100992.09;1392400;93;21402;-83
2021/10/31 02:01:42;;;;;;;110.63;61.15;;;;;;;1.09;76.09;100988.17;1411068;90;22280;-82
2021/10/31 02:04:13;;;;;;;128.20;65.25;;;;;;;1.02;76.58;100985.49;1432758;90;21408;-82
2021/10/31 02:06:50;;;;;;;126.90;65.32;;;;;;;1.04;76.04;100986.27;1440554;90;21878;-84
2021/10/31 02:09:21;;;;;;;116.93;65.25;;;;;;;1.04;76.66;100975.38;1440404;90;21576;-83
2021/10/31 02:11:49;;;;;;;123.33;63.10;;;;;;;1.04;76.31;100979.30;1441169;90;21430;-84
2021/10/31 02:14:19;;;;;;;108.05;58.40;;;;;;;1.07;75.74;100977.00;1442328;90;21379;-85
2021/10/31 02:16:47;;;;;;;112.95;62.90;;;;;;;1.09;75.37;100976.45;1433886;90;22429;-86
2021/10/31 02:19:19;;;;;;;126.05;63.63;;;;;;;1.12;74.97;100973.69;1422174;91;21475;-85
2021/10/31 02:21:49;;;;;;;126.82;63.13;;;;;;;1.13;74.67;100971.02;1417284;92;21564;-87
2021/10/31 02:24:16;;;;;;;119.77;64.58;;;;;;;1.11;74.52;100968.94;1416351;92;21594;-87
2021/10/31 02:26:44;;;;;;;123.72;62.60;;;;;;;1.12;74.70;100966.73;1415844;92;21510;-86
2021/10/31 02:29:12;;;;;;;127.62;62.15;;;;;;;1.13;74.81;100969.72;1406520;92;21969;-87
2021/10/31 02:31:39;;;;;;;114.12;63.45;;;;;;;1.12;74.76;100968.05;1412105;91;21503;-86
2021/10/31 02:34:07;;;;;;;122.22;66.22;;;;;;;1.11;74.60;100966.80;1440926;90;21445;-87
2021/10/31 02:36:36;;;;;;;135.30;65.70;;;;;;;1.11;74.98;100962.89;1449284;90;22399;-86
2021/10/31 02:39:08;;;;;;;116.67;63.40;;;;;;;1.08;74.87;100964.34;1440603;90;22428;-86
2021/10/31 02:41:36;;;;;;;130.18;66.15;;;;;;;1.05;74.68;100956.67;1418305;90;21519;-86
2021/10/31 02:44:04;;;;;;;125.12;65.17;;;;;;;1.05;74.89;100957.97;1425622;92;21445;-86
2021/10/31 02:46:36;;;;;;;126.65;63.60;;;;;;;1.05;75.40;100959.27;1436644;90;21429;-85
2021/10/31 02:49:05;;;;;;;118.45;65.17;;;;;;;1.02;75.73;100954.21;1438186;90;21482;-87
2021/10/31 02:51:57;;;;;;;110.35;60.98;;;;;;;0.98;76.05;100960.04;1437592;90;22553;-85
2021/10/31 02:54:52;;;;;;;121.02;60.80;;;;;;;0.93;76.28;100957.27;1442103;90;22362;-86
2021/10/31 02:57:33;;;;;;;127.62;64.97;;;;;;;0.84;77.29;100954.17;1436847;90;21386;-86
2021/10/31 03:00:05;;;;;;;120.22;65.60;;;;;;;0.80;76.35;100957.82;1441696;88;21564;-86
2021/10/31 03:02:33;;;;;;;114.70;63.42;;;;;;;0.76;77.79;100949.77;1428151;90;21438;-87
2021/10/31 03:05:01;;;;;;;113.35;63.00;;;;;;;0.68;77.33;100950.13;1441329;90;21453;-86
2021/10/31 03:07:30;;;;;;;131.55;66.70;;;;;;;0.61;76.67;100960.45;1441132;90;21400;-86
2021/10/31 03:09:57;;;;;;;115.00;59.63;;;;;;;0.54;76.29;100962.94;1426901;92;21416;-86
2021/10/31 03:12:24;;;;;;;108.22;54.50;;;;;;;0.44;75.37;100965.13;1423609;91;21386;-85
2021/10/31 03:14:51;;;;;;;109.67;55.50;;;;;;;0.32;74.23;100964.39;1423928;90;21571;-85
2021/10/31 03:17:18;;;;;;;107.43;56.92;;;;;;;0.16;73.41;100964.22;1432099;90;21539;-85
2021/10/31 03:19:45;;;;;;;96.42;53.92;;;;;;;0.01;73.38;100964.06;1444761;90;21511;-84
2021/10/31 03:22:12;;;;;;;109.90;57.85;;;;;;;-0.09;74.06;100961.84;1437105;90;23089;-82
2021/10/31 03:24:39;;;;;;;104.07;55.60;;;;;;;-0.13;74.69;100960.75;1444016;90;21493;-82
2021/10/31 03:27:07;;;;;;;113.88;56.53;;;;;;;-0.15;74.97;100959.50;1436809;90;21482;-81
2021/10/31 03:29:35;;;;;;;102.95;59.13;;;;;;;-0.13;75.08;100954.25;1432329;90;22545;-82
2021/10/31 03:32:02;;;;;;;118.22;59.25;;;;;;;-0.11;75.33;100951.97;1442343;90;21615;-84
2021/10/31 03:34:29;;;;;;;116.03;61.88;;;;;;;-0.11;75.22;100953.27;1447200;90;22339;-84
2021/10/31 03:36:56;;;;;;;103.87;55.35;;;;;;;-0.05;74.96;100956.91;1439201;90;21498;-83
2021/10/31 03:39:23;;;;;;;106.87;58.23;;;;;;;0.03;75.15;100959.19;1434006;90;21392;-84
2021/10/31 03:41:50;;;;;;;103.67;57.05;;;;;;;0.09;74.89;100960.21;1436408;90;21524;-83
2021/10/31 03:44:19;;;;;;;108.35;58.55;;;;;;;0.15;75.10;100956.49;1433790;90;22483;-84
2021/10/31 03:46:46;;;;;;;122.02;63.65;;;;;;;0.18;75.59;100955.05;1417669;90;21541;-83
2021/10/31 03:49:16;;;;;;;124.38;63.52;;;;;;;0.21;75.26;100961.42;1446442;90;21555;-83
2021/10/31 03:51:45;;;;;;;135.10;62.58;;;;;;;0.26;75.49;100958.59;1437636;90;21492;-83
2021/10/31 03:54:13;;;;;;;124.80;60.78;;;;;;;0.24;76.20;100958.68;1451410;90;22469;-83
2021/10/31 03:56:40;;;;;;;110.05;61.30;;;;;;;0.19;76.01;100955.43;1435138;90;21490;-83
2021/10/31 03:59:07;;;;;;;106.45;57.93;;;;;;;0.17;76.02;100954.64;1444695;90;21598;-82
2021/10/31 04:01:35;;;;;;;117.37;60.03;;;;;;;0.18;75.59;100955.89;1433312;90;21356;-83
2021/10/31 04:04:03;;;;;;;116.45;60.38;;;;;;;0.18;75.35;100956.36;1422516;90;21585;-83
2021/10/31 04:06:30;;;;;;;115.92;59.93;;;;;;;0.20;75.11;100956.68;1424494;91;21504;-82
2021/10/31 04:08:58;;;;;;;118.62;57.70;;;;;;;0.21;75.26;100951.02;1430907;90;22402;-82
2021/10/31 04:11:25;;;;;;;116.53;59.88;;;;;;;0.20;75.29;100942.36;1444594;90;21312;-83
2021/10/31 04:13:52;;;;;;;112.75;60.12;;;;;;;0.19;75.43;100954.12;1445292;90;21341;-83
2021/10/31 04:16:19;;;;;;;124.80;68.07;;;;;;;0.19;75.21;100950.22;1439038;90;22317;-83
2021/10/31 04:18:46;;;;;;;138.37;73.05;;;;;;;0.21;76.41;100956.22;1438085;90;21506;-84
2021/10/31 04:21:14;;;;;;;305.02;149.05;;;;;;;0.23;75.59;100954.36;1446839;90;21615;-84
2021/10/31 04:23:41;;;;;;;307.87;148.70;;;;;;;0.27;75.31;100949.89;1435535;90;21622;-84
2021/10/31 04:26:08;;;;;;;142.15;69.62;;;;;;;0.28;76.89;100954.17;1415235;91;21552;-83
2021/10/31 04:28:36;;;;;;;159.00;80.55;;;;;;;0.31;75.98;100960.08;1434140;90;21630;-84
2021/10/31 04:31:03;;;;;;;116.67;59.75;;;;;;;0.25;77.12;100956.92;1433658;90;21356;-84
2021/10/31 04:33:30;;;;;;;174.72;87.72;;;;;;;0.23;76.36;100959.58;1444427;90;21356;-84
2021/10/31 04:35:57;;;;;;;139.30;70.57;;;;;;;0.21;76.85;100961.42;1441043;90;21408;-85
2021/10/31 04:38:29;;;;;;;153.80;77.25;;;;;;;0.19;75.83;100954.12;1442617;90;21490;-83
2021/10/31 04:40:54;;;;;;;128.68;68.65;;;;;;;0.19;75.74;100948.92;1441784;90;21335;-83
2021/10/31 04:43:23;;;;;;;132.00;70.37;;;;;;;0.17;75.15;100954.22;1428824;90;21334;-83
2021/10/31 04:45:50;;;;;;;131.35;69.77;;;;;;;0.14;74.82;100949.12;1419365;90;22995;-83
2021/10/31 04:48:19;;;;;;;139.65;73.05;;;;;;;0.16;74.80;100951.66;1448351;90;21334;-84
2021/10/31 04:50:46;;;;;;;127.50;69.27;;;;;;;0.14;75.03;100947.81;1416974;90;21534;-83
2021/10/31 04:53:14;;;;;;;128.70;70.57;;;;;;;0.10;75.68;100945.44;1425009;91;23745;-84
2021/10/31 04:55:42;;;;;;;108.60;61.98;;;;;;;0.06;76.10;100948.64;1418279;91;22540;-83
2021/10/31 04:58:11;;;;;;;109.37;63.17;;;;;;;0.02;76.54;100948.36;1419873;91;22566;-84
2021/10/31 05:00:39;;;;;;;119.02;60.33;;;;;;;0.06;77.00;100954.27;1418414;92;21545;-84
2021/10/31 05:03:06;;;;;;;110.57;62.25;;;;;;;0.10;76.30;100950.64;1423986;92;21563;-84
2021/10/31 05:05:33;;;;;;;115.28;61.83;;;;;;;0.12;76.90;100951.42;1422177;92;21541;-84
2021/10/31 05:08:02;;;;;;;119.67;66.02;;;;;;;0.11;76.61;100949.72;1415107;90;21564;-84
2021/10/31 05:10:29;;;;;;;114.72;61.02;;;;;;;0.14;75.96;100949.58;1443077;90;21530;-84
2021/10/31 05:12:57;;;;;;;107.32;62.65;;;;;;;0.14;75.75;100950.88;1448023;90;21516;-84
2021/10/31 05:15:25;;;;;;;111.15;60.83;;;;;;;0.14;75.38;100949.58;1443778;90;21415;-84
2021/10/31 05:17:53;;;;;;;114.52;59.23;;;;;;;0.12;75.85;100956.63;1448378;90;21378;-84
2021/10/31 05:20:20;;;;;;;108.80;59.42;;;;;;;0.12;75.49;100960.54;1430440;90;22375;-84
2021/10/31 05:22:48;;;;;;;108.37;56.50;;;;;;;0.12;75.80;100963.98;1443105;90;21512;-84
2021/10/31 05:25:15;;;;;;;109.70;60.75;;;;;;;0.11;75.81;100960.97;1438965;90;21629;-85
2021/10/31 05:27:42;;;;;;;108.30;61.23;;;;;;;0.12;75.75;100961.84;1443160;90;21500;-83
2021/10/31 05:30:13;;;;;;;122.82;61.80;;;;;;;0.13;75.70;100959.61;1441945;89;21503;-84
2021/10/31 05:32:42;;;;;;;121.05;63.42;;;;;;;0.14;75.42;100958.69;1443235;90;21378;-84
2021/10/31 05:35:11;;;;;;;109.12;59.83;;;;;;;0.15;75.69;100954.73;1463234;88;21958;-84
2021/10/31 05:37:46;;;;;;;125.70;62.00;;;;;;;0.17;75.57;100954.64;1465721;89;21319;-84
2021/10/31 05:40:17;;;;;;;101.18;56.28;;;;;;;0.20;75.25;100958.41;1467323;89;21591;-84
2021/10/31 05:42:45;;;;;;;112.10;60.95;;;;;;;0.24;75.29;100957.84;1462729;89;21384;-83
2021/10/31 05:45:12;;;;;;;119.80;61.83;;;;;;;0.29;75.42;100954.55;1464795;88;21384;-85
2021/10/31 05:47:42;;;;;;;113.10;62.83;;;;;;;0.30;75.75;100958.86;1469508;88;21807;-87
2021/10/31 05:50:14;;;;;;;113.72;63.45;;;;;;;0.32;75.82;100959.19;1461226;89;21281;-86
2021/10/31 05:52:43;;;;;;;111.97;62.30;;;;;;;0.33;76.76;100968.67;1450561;89;21458;-85
2021/10/31 05:55:14;;;;;;;111.28;59.98;;;;;;;0.31;76.91;100976.16;1467993;88;21444;-86
2021/10/31 05:57:42;;;;;;;106.78;57.58;;;;;;;0.28;76.22;100973.23;1473219;89;21443;-86
2021/10/31 06:00:12;;;;;;;113.22;62.95;;;;;;;0.25;74.93;100979.05;1467547;88;21482;-85
2021/10/31 06:02:40;;;;;;;117.65;64.05;;;;;;;0.24;74.89;100977.37;1468661;89;21297;-87
2021/10/31 06:05:11;;;;;;;112.42;62.15;;;;;;;0.24;75.06;100983.41;1467754;89;21340;-88
2021/10/31 06:07:42;;;;;;;104.03;60.08;;;;;;;0.26;74.70;100980.72;1451279;89;21317;-86
2021/10/31 06:10:11;;;;;;;104.53;56.75;;;;;;;0.33;75.17;100976.48;1467457;89;21377;-86
2021/10/31 06:12:44;;;;;;;129.32;59.08;;;;;;;0.39;74.63;100976.20;1469110;89;21281;-86
2021/10/31 06:15:14;;;;;;;103.78;57.25;;;;;;;0.49;74.62;100977.95;1462240;88;21554;-86
2021/10/31 06:17:41;;;;;;;101.27;55.78;;;;;;;0.54;73.95;100984.24;1458036;89;21613;-85
2021/10/31 06:20:12;;;;;;;100.05;52.95;;;;;;;0.57;73.50;100987.55;1464575;88;21488;-85
2021/10/31 06:22:39;;;;;;;113.12;53.92;;;;;;;0.64;73.50;100989.44;1467449;89;21423;-90
2021/10/31 06:25:09;;;;;;;105.92;58.58;;;;;;;0.71;73.56;100993.89;1474677;88;21252;-89
2021/10/31 06:27:36;;;;;;;103.25;56.25;;;;;;;0.78;73.55;100994.02;1458824;88;21325;-89
2021/10/31 06:30:05;;;;;;;98.87;55.03;;;;;;;0.87;73.63;100991.81;1469560;88;21552;-86
2021/10/31 06:32:32;;;;;;;101.30;57.65;;;;;;;1.01;74.04;100990.33;1451289;89;21429;-87
2021/10/31 06:34:59;;;;;;;103.30;57.17;;;;;;;1.10;73.64;101006.83;1463563;89;21887;-92
2021/10/31 06:37:29;;;;;;;100.37;61.23;;;;;;;1.17;74.98;101004.30;1468034;89;21651;-88
2021/10/31 06:39:56;;;;;;;94.72;58.95;;;;;;;1.26;75.10;100999.95;1464143;88;22520;-89
2021/10/31 06:42:26;;;;;;;107.50;61.57;;;;;;;1.40;75.64;100999.75;1467847;88;22381;-89
2021/10/31 06:44:54;;;;;;;110.37;63.20;;;;;;;1.54;76.33;101002.06;1473393;88;21891;-90
2021/10/31 06:47:22;;;;;;;104.63;62.03;;;;;;;1.69;76.44;101000.45;1468807;88;21637;-91
2021/10/31 06:49:50;;;;;;;120.33;65.83;;;;;;;1.90;76.35;101001.16;1465939;88;21506;-91
2021/10/31 06:52:17;;;;;;;107.73;65.17;;;;;;;2.09;76.46;100998.89;1460105;89;21514;-92
2021/10/31 06:54:45;;;;;;;124.10;69.60;;;;;;;2.34;76.10;101004.99;1448565;89;21543;-90
2021/10/31 06:57:12;;;;;;;117.33;67.13;;;;;;;2.61;76.14;100998.75;1452650;89;22143;-90
2021/10/31 06:59:39;;;;;;;106.00;65.97;;;;;;;2.85;75.70;100996.56;1445772;88;21343;-89
2021/10/31 07:02:07;;;;;;;109.83;67.47;;;;;;;3.10;75.66;100998.67;1448596;89;21438;-90
2021/10/31 07:04:34;;;;;;;101.13;66.33;;;;;;;3.36;75.61;101002.44;1444792;89;21484;-93
2021/10/31 07:07:03;;;;;;;109.10;66.47;;;;;;;3.56;74.83;101003.44;1438717;89;21514;-93
2021/10/31 07:09:30;;;;;;;101.67;66.27;;;;;;;3.70;74.44;101003.12;1442530;88;21580;-93
2021/10/31 07:11:59;;;;;;;91.33;58.77;;;;;;;3.91;74.55;101011.48;1445952;89;22602;-93
2021/10/31 07:14:26;;;;;;;98.07;62.53;;;;;;;4.11;74.52;101016.84;1443252;89;21648;-91
2021/10/31 07:16:53;;;;;;;104.67;65.73;;;;;;;4.29;74.14;101005.28;1456173;89;21670;-92
2021/10/31 07:19:20;;;;;;;95.10;59.43;;;;;;;4.44;73.80;101003.50;1444957;89;22482;-91
2021/10/31 07:21:48;;;;;;;88.03;56.70;;;;;;;4.87;73.81;101010.01;1451304;89;21738;-91
2021/10/31 07:24:15;;;;;;;93.47;57.67;;;;;;;5.03;73.50;101012.48;1439851;89;21778;-92
2021/10/31 07:26:42;;;;;;;94.17;59.43;;;;;;;5.10;72.92;101005.92;1455259;88;21879;-91
2021/10/31 07:29:11;;;;;;;95.87;56.83;;;;;;;5.10;72.92;101005.92;1451982;89;22669;-92
2021/10/31 07:31:43;;;;;;;92.43;60.07;;;;;;;5.30;73.00;101013.36;1455243;89;22965;-93
2021/10/31 07:34:11;;;;;;;99.03;58.93;;;;;;;5.51;72.82;101012.89;1462532;89;22288;-92
2021/10/31 07:36:42;;;;;;;97.97;62.53;;;;;;;5.79;72.69;101004.88;1437694;89;22160;-92
2021/10/31 07:39:10;;;;;;;94.00;60.15;;;;;;;5.94;71.60;101012.70;1444716;89;22132;-94
2021/10/31 07:41:38;;;;;;;103.23;60.10;;;;;;;6.10;71.59;101007.62;1444898;89;21501;-90
2021/10/31 07:44:05;;;;;;;95.33;58.70;;;;;;;6.21;70.92;101002.08;1454966;89;22567;-90
2021/10/31 07:46:34;;;;;;;94.77;60.43;;;;;;;6.36;70.89;101004.13;1441457;89;22169;-92
2021/10/31 07:49:02;;;;;;;98.47;59.27;;;;;;;6.77;70.49;101004.70;1449064;88;21967;-94
2021/10/31 07:51:29;;;;;;;107.10;62.00;;;;;;;6.77;70.49;101004.70;1472846;89;21282;-95
2021/10/31 07:53:56;;;;;;;104.23;63.17;;;;;;;6.95;69.86;101001.23;1455604;89;21421;-94
2021/10/31 07:56:26;;;;;;;120.90;77.60;;;;;;;7.15;69.80;101001.10;1469576;88;22279;-96
2021/10/31 07:58:57;;;;;;;93.60;57.63;;;;;;;7.36;69.11;101006.59;1469640;88;21384;-88
2021/10/31 08:01:25;;;;;;;98.17;59.80;;;;;;;7.56;68.78;101001.16;1462741;89;21413;-86
2021/10/31 08:03:53;;;;;;;98.45;60.65;;;;;;;7.75;68.57;100997.17;1466850;88;21252;-88
2021/10/31 08:06:22;;;;;;;85.70;53.53;;;;;;;7.86;67.81;100990.62;1475095;88;22338;-87
2021/10/31 08:08:50;;;;;;;92.53;54.80;;;;;;;7.99;67.54;100988.70;1466416;89;21318;-90
2021/10/31 08:11:17;;;;;;;94.17;59.07;;;;;;;8.17;67.14;100976.39;1463245;89;21407;-84
2021/10/31 08:13:45;;;;;;;86.70;55.03;;;;;;;8.38;67.08;100978.69;1463148;89;21347;-88
2021/10/31 08:16:13;;;;;;;83.57;53.17;;;;;;;8.57;66.67;100975.01;1464312;89;22485;-88
2021/10/31 08:18:40;;;;;;;83.33;53.83;;;;;;;8.83;66.80;100978.66;1454930;89;21502;-88
2021/10/31 08:21:10;;;;;;;72.63;45.43;;;;;;;8.99;65.61;100971.20;1466317;89;21355;-87
2021/10/31 08:23:38;;;;;;;105.67;53.43;;;;;;;9.22;66.09;100968.00;1449763;89;22182;-84
2021/10/31 08:26:06;;;;;;;69.43;47.60;;;;;;;9.52;65.52;100959.83;1450863;89;22264;-91
2021/10/31 08:28:36;;;;;;;81.43;51.40;;;;;;;9.70;64.00;100960.11;1452080;89;21501;-87
2021/10/31 08:31:04;;;;;;;76.17;49.87;;;;;;;9.91;64.17;100965.39;1452249;90;21377;-87
2021/10/31 08:33:36;;;;;;;78.40;51.17;;;;;;;10.03;63.12;100958.21;1442492;89;22344;-88
2021/10/31 08:36:05;;;;;;;76.50;51.37;;;;;;;10.14;62.88;100956.32;1450077;89;21274;-87
2021/10/31 08:38:33;;;;;;;76.83;50.33;;;;;;;10.33;62.76;100951.65;1460601;89;21347;-86
2021/10/31 08:41:00;;;;;;;96.50;55.57;;;;;;;10.53;62.39;100953.02;1459489;88;21332;-90
2021/10/31 08:43:27;;;;;;;73.90;49.97;;;;;;;10.76;61.75;100948.34;1453667;89;22507;-91
2021/10/31 08:45:55;;;;;;;121.37;54.07;;;;;;;10.93;61.07;100947.67;1468965;89;21436;-90
2021/10/31 08:48:23;;;;;;;85.67;52.10;;;;;;;11.14;60.47;100950.23;1469781;88;21363;-89
2021/10/31 08:50:51;;;;;;;79.20;54.23;;;;;;;11.37;60.60;100951.28;1466004;88;21295;-89
2021/10/31 08:53:19;;;;;;;76.87;51.73;;;;;;;11.58;59.82;100941.84;1474669;89;21341;-89
2021/10/31 08:55:47;;;;;;;79.83;52.50;;;;;;;11.75;59.26;100936.64;1458396;88;21244;-89
2021/10/31 08:58:14;;;;;;;70.93;50.67;;;;;;;11.95;58.72;100931.33;1463875;89;21399;-88
2021/10/31 09:00:42;;;;;;;71.77;47.93;;;;;;;12.14;57.76;100927.30;1470132;89;21362;-88
2021/10/31 09:03:09;;;;;;;79.17;50.53;;;;;;;12.50;58.20;100928.72;1469901;88;21384;-89
2021/10/31 09:05:37;;;;;;;71.43;48.37;;;;;;;13.13;57.05;100929.23;1466295;88;21443;-89
2021/10/31 09:08:06;;;;;;;66.23;45.97;;;;;;;13.80;54.57;100919.48;1464850;88;21267;-89
2021/10/31 09:10:34;;;;;;;52.93;40.20;;;;;;;14.49;50.45;100912.33;1473050;88;21310;-90
2021/10/31 09:13:02;;;;;;;59.40;39.83;;;;;;;15.23;49.61;100916.84;1465466;88;22390;-90
2021/10/31 09:15:30;;;;;;;59.03;41.17;;;;;;;15.97;49.65;100902.95;1464138;89;22405;-90
2021/10/31 09:18:01;;;;;;;55.00;37.67;;;;;;;16.59;47.01;100902.18;1464528;88;21368;-89
2021/10/31 09:20:32;;;;;;;50.67;35.20;;;;;;;17.12;45.80;100899.21;1463080;89;21539;-90
2021/10/31 09:23:02;;;;;;;42.07;33.23;;;;;;;17.67;45.29;100904.42;1461768;89;22294;-90
2021/10/31 09:25:30;;;;;;;49.85;33.13;;;;;;;18.16;43.38;100901.25;1465409;89;21347;-91
2021/10/31 09:27:58;;;;;;;48.28;33.42;;;;;;;18.54;42.89;100896.56;1465912;88;21362;-90
2021/10/31 09:30:27;;;;;;;47.38;35.20;;;;;;;18.90;41.44;100897.08;1471321;88;21509;-90
2021/10/31 09:32:55;;;;;;;46.13;32.00;;;;;;;19.07;40.83;100897.66;1468041;88;21442;-91
2021/10/31 09:35:26;;;;;;;46.28;29.80;;;;;;;19.49;40.35;100887.40;1466272;88;22499;-90
2021/10/31 09:38:01;;;;;;;38.02;28.35;;;;;;;19.64;39.41;100879.23;1474395;88;21302;-90
2021/10/31 09:40:25;;;;;;;48.33;29.90;;;;;;;19.80;39.42;100878.15;1464900;88;21369;-90
2021/10/31 09:42:54;;;;;;;40.08;31.62;;;;;;;19.98;36.85;100866.88;1446426;89;21509;-90
2021/10/31 09:45:23;;;;;;;45.58;32.58;;;;;;;20.08;38.79;100864.64;1451209;89;22284;-91
2021/10/31 09:47:58;;;;;;;42.88;32.45;;;;;;;20.45;38.29;100863.86;1451223;89;21193;-90
2021/10/31 09:50:29;;;;;;;52.83;31.93;;;;;;;20.48;36.61;100859.42;1451413;89;21611;-90
2021/10/31 09:52:57;;;;;;;48.13;30.65;;;;;;;20.91;37.57;100846.51;1436688;88;21426;-90
2021/10/31 09:55:25;;;;;;;59.00;34.43;;;;;;;20.91;37.57;100846.51;1446031;89;21331;-89
2021/10/31 09:57:55;;;;;;;40.65;31.87;;;;;;;21.01;35.27;100849.34;1458985;89;22956;-89
2021/10/31 10:00:42;;;;;;;42.45;29.12;;;;;;;21.09;36.71;100849.11;1452193;89;22390;-90
2021/10/31 10:03:24;;;;;;;38.50;29.15;;;;;;;21.08;35.85;100853.67;1437748;89;21518;-89
2021/10/31 10:06:33;;;;;;;46.05;29.32;;;;;;;21.21;35.68;100850.17;1426087;91;21559;-90
2021/10/31 10:09:10;;;;;;;40.60;29.87;;;;;;;21.49;35.51;100843.25;1425882;89;21396;-89
2021/10/31 10:11:41;;;;;;;40.48;29.07;;;;;;;21.35;34.71;100846.96;1426241;91;21472;-90
2021/10/31 10:14:28;;;;;;;29.30;23.50;;;;;;;21.51;34.84;100839.80;1425694;91;21523;-90
2021/10/31 10:17:02;;;;;;;36.93;24.47;;;;;;;21.52;32.52;100837.44;1430924;91;21384;-90
2021/10/31 10:19:34;;;;;;;36.68;24.35;;;;;;;21.41;33.92;100835.38;1430612;91;21589;-90
2021/10/31 10:22:11;;;;;;;37.67;24.27;;;;;;;21.44;34.04;100830.92;1429290;91;21324;-90
2021/10/31 10:24:55;;;;;;;29.98;24.47;;;;;;;21.65;34.65;100829.84;1425771;91;21338;-90
2021/10/31 10:27:27;;;;;;;113.47;28.77;;;;;;;21.90;34.24;100823.25;1431546;90;22306;-90
2021/10/31 10:29:57;;;;;;;42.45;25.77;;;;;;;21.99;33.91;100825.19;1431921;91;22380;-86
2021/10/31 10:32:27;;;;;;;35.38;24.52;;;;;;;22.00;33.56;100823.61;1438511;90;21517;-90
2021/10/31 10:34:58;;;;;;;34.73;24.72;;;;;;;22.25;33.46;100825.62;1430914;90;21448;-91
2021/10/31 10:37:39;;;;;;;37.50;25.40;;;;;;;22.37;33.08;100820.37;1418743;89;21480;-91
2021/10/31 10:40:17;;;;;;;33.75;22.95;;;;;;;22.59;32.89;100812.79;1429940;89;21362;-90
2021/10/31 10:42:56;;;;;;;36.25;24.77;;;;;;;22.75;31.63;100807.67;1446837;89;21437;-90
2021/10/31 10:45:27;;;;;;;37.17;26.02;;;;;;;22.72;32.02;100808.11;1455511;89;21243;-90
2021/10/31 10:48:04;;;;;;;41.90;25.00;;;;;;;22.77;32.33;100802.06;1462378;88;21859;-91
2021/10/31 10:50:40;;;;;;;32.60;20.43;;;;;;;22.78;31.84;100793.45;1461982;89;22293;-90
2021/10/31 10:53:17;;;;;;;25.97;21.45;;;;;;;22.91;31.27;100792.00;1465815;89;21311;-90
2021/10/31 10:55:46;;;;;;;39.25;20.72;;;;;;;22.85;31.15;100791.54;1447096;88;21230;-91
2021/10/31 10:58:17;;;;;;;31.93;21.85;;;;;;;22.32;29.94;100788.66;1430407;89;21545;-90
2021/10/31 11:00:50;;;;;;;29.75;21.25;;;;;;;22.40;31.60;100787.06;1438328;89;21397;-92
2021/10/31 11:03:21;;;;;;;36.48;21.10;;;;;;;22.41;31.62;100781.98;1455030;89;21318;-90
2021/10/31 11:06:00;;;;;;;35.00;21.15;;;;;;;22.57;31.73;100782.50;1456983;89;21324;-91
2021/10/31 11:08:33;;;;;;;26.85;18.80;;;;;;;22.62;31.51;100773.24;1432605;89;22106;-92
2021/10/31 11:11:12;;;;;;;28.70;20.17;;;;;;;22.65;31.40;100768.75;1446081;89;21369;-93
2021/10/31 11:13:48;;;;;;;27.75;20.35;;;;;;;22.92;31.38;100763.96;1454806;85;21311;-91
2021/10/31 11:16:15;;;;;;;26.97;19.50;;;;;;;23.14;30.32;100760.38;1444170;89;21437;-93
2021/10/31 11:18:47;;;;;;;28.05;20.35;;;;;;;23.14;31.03;100756.33;1451511;89;21230;-94
2021/10/31 11:21:15;;;;;;;31.02;20.00;;;;;;;23.24;30.55;100753.92;1439601;88;21451;-92
2021/10/31 11:23:46;;;;;;;220.17;30.45;;;;;;;23.38;30.30;100749.22;1452427;89;21304;-91
2021/10/31 11:26:26;;;;;;;34.48;19.37;;;;;;;23.42;30.20;100744.50;1446674;89;21318;-94